Leeton, Missouri
Current Conditions -  °F | °C
As of 6:55 PM on Tuesday 21 Oct 2014 (Local Time) from KSZL Reporting Station
Clear Clear  
Wind Chill: 63°   Ceiling: Unl
Heat Index: 63°   Visibility: 10mi
Dew Point: 46°   Wind: 2mph
Humidity: 53%   Direction: 140°SE
Pressure: 30.09"   Gusts: NA
Location:  38.58°N, 93.69°W
Report Text: KSZL 212355Z 14002KT 10SM CLR 17/07 A3009 RMK AO2A SLP188 T01740077 10224 20171 402240055 53001 $
Loading
Personal Weather Stations






























Interactive Weather Map
Tropical Storm Tracking
New forecast layout! Learn more

10-Day Weather Forecast

Advertisements
Track Severe Weather on mobile